Time;durP1;ratioP1;P1;durP2;ratioP2;P2;SDS_P1;SDS_P2;PMS_P1;PMS_P2;Temp;Humidity;BMP_temperature;BMP_pressure;BME280_temperature;BME280_humidity;BME280_pressure;Samples;Min_cycle;Max_cycle;Signal;HPM_P1;HPM_P2
2023/12/07 00:00:00;;;;;;;5.70;2.70;;;;;;;18.31;36.06;101882.97;5047996;28;20032;-71
2023/12/07 00:02:26;;;;;;;4.07;2.20;;;;;;;18.26;35.63;101878.00;5048417;28;20040;-72
2023/12/07 00:04:51;;;;;;;3.88;2.17;;;;;;;18.18;35.87;101867.06;5048004;28;20320;-71
2023/12/07 00:07:16;;;;;;;4.20;2.20;;;;;;;18.16;35.81;101858.41;5048245;28;20466;-71
2023/12/07 00:09:41;;;;;;;4.30;2.13;;;;;;;18.19;35.80;101868.78;5045606;28;20123;-71
2023/12/07 00:12:07;;;;;;;4.80;2.28;;;;;;;18.22;35.57;101868.56;5047448;28;20029;-71
2023/12/07 00:14:32;;;;;;;4.40;2.40;;;;;;;18.13;35.58;101853.34;5047694;28;20862;-71
2023/12/07 00:16:58;;;;;;;4.35;2.40;;;;;;;18.10;35.58;101849.13;5046795;28;21567;-71
2023/12/07 00:19:23;;;;;;;5.57;2.63;;;;;;;18.09;35.63;101857.97;5047860;28;20033;-72
2023/12/07 00:21:48;;;;;;;4.50;2.35;;;;;;;18.13;35.71;101862.13;5047919;28;20523;-71
2023/12/07 00:24:14;;;;;;;4.50;2.40;;;;;;;18.04;35.56;101846.88;5047675;28;20437;-71
2023/12/07 00:26:39;;;;;;;4.63;2.30;;;;;;;18.04;35.56;101848.66;5047764;28;20043;-72
2023/12/07 00:29:04;;;;;;;4.68;2.30;;;;;;;18.04;35.50;101852.16;5045149;28;20407;-71
2023/12/07 00:31:30;;;;;;;4.30;2.70;;;;;;;17.95;35.23;101847.47;5047379;28;20363;-71
2023/12/07 00:33:55;;;;;;;4.22;2.40;;;;;;;18.07;35.30;101867.78;5047530;28;20159;-71
2023/12/07 00:36:20;;;;;;;5.13;2.60;;;;;;;17.98;35.08;101851.72;5047262;28;20036;-71
2023/12/07 00:38:46;;;;;;;4.63;2.45;;;;;;;18.04;35.08;101873.25;5047445;28;20082;-71
2023/12/07 00:41:11;;;;;;;4.70;2.75;;;;;;;18.00;35.33;101869.13;5047435;28;20485;-71
2023/12/07 00:43:36;;;;;;;5.47;2.45;;;;;;;18.02;34.99;101871.66;5047542;28;20397;-71
2023/12/07 00:46:02;;;;;;;4.55;2.40;;;;;;;17.98;35.19;101860.47;5045655;28;20057;-71
2023/12/07 00:48:27;;;;;;;4.38;2.72;;;;;;;17.90;34.89;101852.22;5047575;28;20036;-71
2023/12/07 00:50:52;;;;;;;4.00;2.40;;;;;;;17.97;35.13;101857.94;5047019;28;20126;-71
2023/12/07 00:53:18;;;;;;;5.35;2.58;;;;;;;17.94;35.28;101848.41;5047679;28;20529;-71
2023/12/07 00:55:43;;;;;;;5.22;2.80;;;;;;;17.87;34.83;101847.94;5046949;28;20040;-71
2023/12/07 00:58:09;;;;;;;4.43;2.70;;;;;;;17.85;34.98;101846.31;5047305;28;20029;-71
2023/12/07 01:00:34;;;;;;;4.88;2.78;;;;;;;17.84;35.11;101848.13;5046541;28;20029;-71
2023/12/07 01:03:00;;;;;;;5.75;2.80;;;;;;;17.86;34.94;101854.13;5047200;28;20047;-71
2023/12/07 01:05:25;;;;;;;4.88;2.80;;;;;;;17.84;35.17;101863.13;5046659;28;20390;-71
2023/12/07 01:07:51;;;;;;;5.28;3.30;;;;;;;17.89;35.13;101866.31;5047173;28;20071;-71
2023/12/07 01:10:16;;;;;;;5.03;3.03;;;;;;;17.83;34.90;101859.63;5046914;28;20029;-71
2023/12/07 01:12:41;;;;;;;4.95;2.83;;;;;;;17.77;34.71;101860.88;5047202;28;20029;-71
2023/12/07 01:15:07;;;;;;;4.32;2.90;;;;;;;17.74;34.62;101863.69;5046333;28;20028;-71
2023/12/07 01:17:32;;;;;;;4.80;2.90;;;;;;;17.77;34.90;101867.94;5046929;28;20033;-71
2023/12/07 01:19:57;;;;;;;6.20;3.10;;;;;;;17.82;35.07;101878.19;5046373;28;20124;-71
2023/12/07 01:22:23;;;;;;;5.28;2.80;;;;;;;17.80;35.14;101883.56;5046593;28;20075;-71
2023/12/07 01:24:48;;;;;;;5.80;2.97;;;;;;;17.82;35.06;101876.41;5046658;28;20112;-71
2023/12/07 01:27:13;;;;;;;5.63;2.80;;;;;;;17.72;34.90;101860.31;5046606;28;20284;-71
2023/12/07 01:29:38;;;;;;;4.95;2.75;;;;;;;17.81;34.64;101879.13;5045244;28;20278;-71
2023/12/07 01:32:05;;;;;;;4.47;2.70;;;;;;;17.59;34.83;101836.53;5046564;28;20079;-71
2023/12/07 01:34:32;;;;;;;4.90;3.17;;;;;;;17.74;34.89;101860.22;5046547;28;20033;-71
2023/12/07 01:36:57;;;;;;;4.38;2.67;;;;;;;17.75;34.60;101875.06;5046539;28;20021;-71
2023/12/07 01:39:23;;;;;;;5.10;2.60;;;;;;;17.70;34.58;101858.72;5046090;28;20031;-71
2023/12/07 01:41:48;;;;;;;5.70;3.25;;;;;;;17.76;34.49;101871.50;5046062;28;20052;-71
2023/12/07 01:44:13;;;;;;;4.65;3.00;;;;;;;17.73;34.47;101875.16;5044750;28;20137;-71
2023/12/07 01:46:39;;;;;;;4.90;2.65;;;;;;;17.66;34.88;101859.88;5046443;28;20057;-71
2023/12/07 01:49:04;;;;;;;5.20;2.97;;;;;;;17.74;34.86;101884.78;5046508;28;20025;-71
2023/12/07 01:51:30;;;;;;;4.55;2.78;;;;;;;17.46;34.49;101837.38;5046253;28;20123;-71
2023/12/07 01:53:55;;;;;;;4.57;2.85;;;;;;;17.64;34.85;101861.72;5046304;28;20454;-70
2023/12/07 01:56:24;;;;;;;5.63;3.10;;;;;;;17.65;34.67;101861.63;5046358;28;20071;-70
2023/12/07 01:58:50;;;;;;;4.65;3.15;;;;;;;17.65;34.68;101868.72;5046276;28;20110;-70
2023/12/07 02:01:16;;;;;;;5.05;2.90;;;;;;;17.62;34.47;101868.91;5044125;28;20462;-70
2023/12/07 02:03:41;;;;;;;4.75;3.10;;;;;;;17.65;34.54;101880.09;5046186;28;20033;-71
2023/12/07 02:06:08;;;;;;;5.57;3.03;;;;;;;17.69;34.79;101888.66;5045560;28;20041;-71
2023/12/07 02:08:34;;;;;;;5.20;3.05;;;;;;;17.67;34.37;101878.19;5046067;28;20386;-70
2023/12/07 02:11:00;;;;;;;5.05;3.00;;;;;;;17.57;34.63;101863.91;5045297;28;20133;-71
2023/12/07 02:13:26;;;;;;;5.20;2.88;;;;;;;17.63;34.67;101879.34;5046103;28;20040;-70
2023/12/07 02:15:53;;;;;;;4.75;3.10;;;;;;;17.56;34.41;101876.25;5045973;28;20040;-71
2023/12/07 02:18:28;;;;;;;4.90;2.90;;;;;;;17.54;34.73;101864.94;5045835;28;20179;-70
2023/12/07 02:21:25;;;;;;;5.13;3.22;;;;;;;17.63;34.47;101887.25;5045601;28;20029;-70
2023/12/07 02:23:53;;;;;;;4.68;3.00;;;;;;;17.52;34.44;101872.09;5045677;28;20036;-70
2023/12/07 02:26:20;;;;;;;5.90;3.13;;;;;;;17.61;34.42;101889.16;5045521;28;20025;-70
2023/12/07 02:28:45;;;;;;;4.50;2.88;;;;;;;17.58;34.54;101898.09;5045394;28;20025;-71
2023/12/07 02:31:10;;;;;;;3.92;2.58;;;;;;;17.59;34.86;101893.66;5044589;28;20033;-70
2023/12/07 02:33:36;;;;;;;4.90;2.92;;;;;;;17.51;34.44;101877.47;5045561;28;20431;-70
2023/12/07 02:36:01;;;;;;;4.60;2.80;;;;;;;17.49;34.72;101880.19;5044148;28;20033;-70
2023/12/07 02:38:28;;;;;;;4.78;2.80;;;;;;;17.55;34.71;101897.44;5045518;28;20033;-71
2023/12/07 02:40:55;;;;;;;4.97;2.78;;;;;;;17.48;34.51;101877.66;5045428;28;20082;-71
2023/12/07 02:43:21;;;;;;;4.90;2.80;;;;;;;17.56;34.40;101893.84;5045573;28;20342;-71
2023/12/07 02:45:46;;;;;;;4.72;3.05;;;;;;;17.50;34.82;101881.03;5045303;28;20041;-71
2023/12/07 02:48:12;;;;;;;4.53;2.97;;;;;;;17.45;34.63;101873.44;5045743;28;20025;-71
2023/12/07 02:50:37;;;;;;;4.60;2.90;;;;;;;17.43;34.73;101867.41;5045901;28;20058;-71
2023/12/07 02:53:02;;;;;;;5.03;3.30;;;;;;;17.41;34.50;101872.75;5048617;28;20025;-70
2023/12/07 02:55:27;;;;;;;4.25;2.67;;;;;;;17.44;34.45;101879.66;5049320;28;20116;-70
2023/12/07 02:57:53;;;;;;;4.50;2.58;;;;;;;17.39;34.37;101872.03;5049061;28;20036;-71
2023/12/07 03:00:18;;;;;;;4.47;2.80;;;;;;;17.48;34.74;101880.28;5049643;28;20114;-71
2023/12/07 03:02:43;;;;;;;5.55;2.95;;;;;;;17.40;34.41;101873.72;5049456;28;20025;-71
2023/12/07 03:05:09;;;;;;;5.10;3.13;;;;;;;17.48;34.36;101894.34;5048776;28;20028;-71
2023/12/07 03:07:34;;;;;;;4.35;2.72;;;;;;;17.47;34.51;101895.28;5048940;28;20497;-70
2023/12/07 03:10:00;;;;;;;4.05;2.70;;;;;;;17.47;34.44;101891.81;5048712;28;20041;-70
2023/12/07 03:12:25;;;;;;;4.30;2.83;;;;;;;17.42;34.32;101884.19;5048616;28;20036;-70
2023/12/07 03:14:51;;;;;;;4.93;2.75;;;;;;;17.34;34.74;101871.47;5048310;28;20436;-71
2023/12/07 03:17:16;;;;;;;5.28;3.20;;;;;;;17.34;34.30;101878.50;5048679;28;20482;-71
2023/12/07 03:19:42;;;;;;;5.30;3.17;;;;;;;17.41;34.50;101885.94;5047425;28;20036;-71
2023/12/07 03:22:08;;;;;;;4.45;2.95;;;;;;;17.42;34.55;101892.09;5049121;28;20037;-71
2023/12/07 03:24:37;;;;;;;4.90;3.08;;;;;;;17.36;34.61;101881.91;5048692;28;20481;-71
2023/12/07 03:27:03;;;;;;;4.75;2.90;;;;;;;17.30;34.52;101877.84;5048817;28;20037;-71
2023/12/07 03:29:28;;;;;;;4.22;2.70;;;;;;;17.40;34.33;101905.34;5047331;28;20478;-71
2023/12/07 03:31:54;;;;;;;3.95;2.72;;;;;;;17.32;34.32;101875.13;5048714;28;20433;-71
2023/12/07 03:34:19;;;;;;;5.03;3.08;;;;;;;17.31;34.53;101874.28;5047211;28;20537;-71
2023/12/07 03:36:48;;;;;;;4.45;2.70;;;;;;;17.32;34.52;101886.53;5048707;28;20124;-71
2023/12/07 03:39:15;;;;;;;5.05;3.15;;;;;;;17.34;34.69;101891.69;5048377;28;20033;-71
2023/12/07 03:41:40;;;;;;;4.55;3.20;;;;;;;17.37;34.21;101910.81;5048473;28;20075;-71
2023/12/07 03:44:06;;;;;;;5.15;3.15;;;;;;;17.38;34.35;101903.75;5046938;28;20064;-71
2023/12/07 03:46:31;;;;;;;4.90;3.00;;;;;;;17.28;34.50;101895.56;5047940;28;20045;-71
2023/12/07 03:48:56;;;;;;;4.95;3.17;;;;;;;17.27;34.41;101891.22;5048404;28;20029;-71
2023/12/07 03:51:22;;;;;;;4.93;2.97;;;;;;;17.36;34.25;101910.91;5048317;28;20035;-71
2023/12/07 03:53:47;;;;;;;4.88;3.03;;;;;;;17.34;34.40;101912.75;5048088;28;20488;-71
2023/12/07 03:56:26;;;;;;;4.32;2.60;;;;;;;17.32;34.23;101906.75;5047915;28;20028;-71
2023/12/07 03:58:51;;;;;;;4.43;3.05;;;;;;;17.23;34.71;101897.63;5048350;28;20036;-71
2023/12/07 04:01:17;;;;;;;4.95;3.10;;;;;;;17.32;34.21;101914.66;5048150;28;20086;-71
2023/12/07 04:03:42;;;;;;;4.25;2.97;;;;;;;17.24;34.22;101912.47;5046341;28;20087;-71
2023/12/07 04:06:08;;;;;;;4.88;2.95;;;;;;;17.27;34.53;101922.00;5048252;28;20029;-71
2023/12/07 04:08:33;;;;;;;4.40;2.97;;;;;;;17.20;34.05;101906.56;5048079;28;20082;-71
2023/12/07 04:10:58;;;;;;;4.70;2.78;;;;;;;17.29;34.23;101914.84;5047892;28;20032;-71
2023/12/07 04:13:23;;;;;;;4.00;2.60;;;;;;;17.28;34.13;101921.91;5047980;28;20120;-71
2023/12/07 04:15:49;;;;;;;4.65;2.67;;;;;;;17.21;34.33;101910.91;5047688;28;20135;-71
2023/12/07 04:18:15;;;;;;;4.60;3.00;;;;;;;17.28;34.28;101921.91;5048052;28;20052;-71
2023/12/07 04:20:41;;;;;;;4.60;2.92;;;;;;;17.20;34.52;101913.63;5047400;28;20064;-71
2023/12/07 04:23:06;;;;;;;4.43;2.80;;;;;;;17.28;34.50;101934.25;5047457;28;20422;-71
2023/12/07 04:25:31;;;;;;;4.50;2.80;;;;;;;17.27;34.58;101936.00;5046785;28;20029;-70
2023/12/07 04:27:57;;;;;;;4.57;3.10;;;;;;;17.11;34.17;101901.00;5047972;28;20033;-70
2023/12/07 04:30:22;;;;;;;4.28;2.85;;;;;;;17.26;34.53;101939.59;5046028;28;20496;-70
2023/12/07 04:32:48;;;;;;;4.90;2.85;;;;;;;17.20;34.47;101926.78;5047167;28;20123;-70
2023/12/07 04:35:13;;;;;;;4.85;3.10;;;;;;;17.23;34.57;101931.88;5047103;28;20389;-71
2023/12/07 04:37:38;;;;;;;4.50;2.90;;;;;;;17.17;34.38;101930.44;5046371;28;20124;-71
2023/12/07 04:40:04;;;;;;;4.78;3.30;;;;;;;17.21;34.57;101944.28;5046918;28;20032;-71
2023/12/07 04:42:30;;;;;;;5.03;3.03;;;;;;;17.17;34.49;101934.88;5047123;28;20449;-71
2023/12/07 04:44:55;;;;;;;4.93;3.28;;;;;;;17.14;34.43;101928.00;5047234;28;20103;-71
2023/12/07 04:47:21;;;;;;;4.60;2.72;;;;;;;17.20;34.56;101935.53;5047402;28;20044;-71
2023/12/07 04:49:46;;;;;;;4.60;3.00;;;;;;;17.21;34.32;101926.69;5047390;28;20025;-71
2023/12/07 04:52:12;;;;;;;4.57;2.88;;;;;;;17.19;34.09;101922.44;5047031;28;20063;-71
2023/12/07 04:54:37;;;;;;;4.72;3.17;;;;;;;17.18;34.47;101923.38;5046789;28;20037;-71
2023/12/07 04:57:02;;;;;;;4.72;3.00;;;;;;;17.18;34.24;101928.66;5047303;28;20071;-71
2023/12/07 04:59:28;;;;;;;4.80;3.20;;;;;;;17.17;34.46;101919.06;5047019;28;20470;-71
2023/12/07 05:01:53;;;;;;;4.80;3.05;;;;;;;17.08;34.15;101893.28;5047096;28;20025;-71
2023/12/07 05:04:18;;;;;;;4.78;3.00;;;;;;;17.17;34.33;101908.53;5047200;28;20529;-71
2023/12/07 05:06:43;;;;;;;4.28;2.80;;;;;;;17.17;34.24;101904.09;5046828;28;20025;-71
2023/12/07 05:09:11;;;;;;;4.55;2.88;;;;;;;17.17;34.49;101898.00;5047050;28;20102;-71
2023/12/07 05:11:37;;;;;;;4.53;2.83;;;;;;;17.16;34.19;101896.28;5046913;28;20033;-71
2023/12/07 05:14:03;;;;;;;5.18;3.30;;;;;;;17.15;34.46;101900.72;5046711;28;20056;-71
2023/12/07 05:16:29;;;;;;;4.45;2.80;;;;;;;17.08;34.46;101880.09;5046685;28;20033;-71
2023/12/07 05:18:54;;;;;;;4.47;2.67;;;;;;;17.13;34.39;101892.06;5046804;28;20367;-71
2023/12/07 05:21:20;;;;;;;4.40;2.88;;;;;;;17.02;34.30;101876.03;5045995;28;20033;-71
2023/12/07 05:23:45;;;;;;;4.80;3.17;;;;;;;17.13;34.56;101894.72;5046203;28;20032;-70
2023/12/07 05:26:10;;;;;;;5.13;3.13;;;;;;;17.10;34.34;101891.38;5045942;28;20033;-70
2023/12/07 05:28:36;;;;;;;4.65;2.83;;;;;;;17.07;34.18;101883.66;5046413;28;20129;-71
2023/12/07 05:31:01;;;;;;;4.80;2.78;;;;;;;17.14;34.60;101890.28;5044609;28;20071;-70
2023/12/07 05:33:27;;;;;;;4.28;2.50;;;;;;;17.07;34.52;101879.28;5046449;28;20497;-71
2023/12/07 05:35:53;;;;;;;4.57;2.67;;;;;;;17.14;34.47;101888.47;5046725;28;21581;-72
2023/12/07 05:38:18;;;;;;;4.45;2.47;;;;;;;17.17;35.09;101895.38;5046712;28;20071;-71
2023/12/07 05:40:43;;;;;;;3.78;2.10;;;;;;;17.12;35.36;101879.00;5046373;28;20371;-71
2023/12/07 05:43:09;;;;;;;3.75;2.03;;;;;;;17.16;35.51;101877.84;5046714;28;20500;-71
2023/12/07 05:45:34;;;;;;;3.35;1.65;;;;;;;17.28;35.30;101890.28;5046107;28;20059;-71
2023/12/07 05:47:59;;;;;;;3.15;1.63;;;;;;;17.27;35.52;101879.84;5046708;28;20045;-72
2023/12/07 05:50:24;;;;;;;3.28;1.73;;;;;;;17.37;35.32;101892.38;5046864;28;20037;-71
2023/12/07 05:52:50;;;;;;;3.63;2.08;;;;;;;17.36;35.44;101871.38;5046468;28;20127;-71
2023/12/07 05:55:15;;;;;;;3.27;1.70;;;;;;;17.37;35.18;101870.41;5046328;28;21047;-71
2023/12/07 05:57:40;;;;;;;3.17;1.80;;;;;;;17.49;35.31;101890.75;5046404;28;20262;-72
2023/12/07 06:00:09;;;;;;;3.40;1.90;;;;;;;17.46;35.34;101872.47;5043720;28;20025;-72
2023/12/07 06:02:35;;;;;;;3.50;1.73;;;;;;;17.49;35.17;101882.84;5046280;28;20386;-72
2023/12/07 06:05:03;;;;;;;3.30;1.70;;;;;;;17.58;35.19;101890.19;5044681;28;20041;-72
2023/12/07 06:07:29;;;;;;;3.47;1.73;;;;;;;17.54;35.12;101874.66;5044284;28;20390;-72
2023/12/07 06:09:55;;;;;;;2.92;1.58;;;;;;;17.63;35.10;101887.25;5045860;28;20033;-72
2023/12/07 06:12:21;;;;;;;3.50;1.85;;;;;;;17.63;35.19;101889.06;5045697;28;20120;-72
2023/12/07 06:14:47;;;;;;;3.60;1.75;;;;;;;17.56;34.90;101875.38;5045759;28;20043;-71
2023/12/07 06:17:12;;;;;;;3.38;1.73;;;;;;;17.58;35.17;101868.25;5046245;28;20033;-72
2023/12/07 06:19:38;;;;;;;3.25;1.70;;;;;;;17.61;34.91;101875.09;5045527;28;20079;-72
2023/12/07 06:22:03;;;;;;;3.50;1.70;;;;;;;17.64;35.23;101881.06;5046144;28;20405;-72
2023/12/07 06:24:28;;;;;;;3.42;1.85;;;;;;;17.66;35.04;101878.31;5046451;28;20025;-72
2023/12/07 06:26:54;;;;;;;3.60;1.67;;;;;;;17.65;35.20;101879.25;5047608;28;20060;-71
2023/12/07 06:29:19;;;;;;;2.88;1.55;;;;;;;17.65;35.09;101881.88;5050122;28;20033;-72
2023/12/07 06:31:44;;;;;;;3.10;1.52;;;;;;;17.64;34.94;101880.19;5050344;28;20041;-71
2023/12/07 06:34:10;;;;;;;2.97;1.70;;;;;;;17.68;35.14;101884.34;5050369;28;20033;-71
2023/12/07 06:36:35;;;;;;;3.20;1.60;;;;;;;17.76;35.15;101889.97;5049957;28;20055;-71
2023/12/07 06:39:02;;;;;;;2.75;1.50;;;;;;;17.76;35.00;101882.06;5049985;28;20653;-72
2023/12/07 06:41:28;;;;;;;2.88;1.40;;;;;;;17.75;34.87;101868.03;5050375;28;20041;-71
2023/12/07 06:43:54;;;;;;;3.08;1.67;;;;;;;17.75;34.95;101859.25;5050072;28;20036;-71
2023/12/07 06:46:19;;;;;;;3.08;1.50;;;;;;;17.81;34.88;101865.94;5049895;28;20516;-71
2023/12/07 06:48:44;;;;;;;3.10;1.50;;;;;;;17.70;34.85;101846.38;5050407;28;20043;-71
2023/12/07 06:51:09;;;;;;;3.00;1.50;;;;;;;17.83;34.98;101856.13;5049502;28;20045;-71
2023/12/07 06:53:35;;;;;;;3.38;1.50;;;;;;;17.84;34.91;101855.22;5050063;28;20432;-71
2023/12/07 06:56:00;;;;;;;2.80;1.52;;;;;;;17.82;34.94;101852.66;5048949;28;20123;-71
2023/12/07 06:58:25;;;;;;;3.00;1.50;;;;;;;17.83;34.91;101853.50;5049322;28;20100;-72
2023/12/07 07:00:51;;;;;;;3.13;1.55;;;;;;;17.78;34.85;101853.78;5049163;28;20028;-71
2023/12/07 07:03:19;;;;;;;3.20;1.42;;;;;;;17.83;34.85;101851.72;5049382;28;20067;-72
2023/12/07 07:05:44;;;;;;;2.60;1.40;;;;;;;17.89;34.88;101866.31;5049461;28;20032;-71
2023/12/07 07:08:09;;;;;;;2.72;1.42;;;;;;;17.82;34.90;101855.31;5049327;28;20031;-72
2023/12/07 07:10:35;;;;;;;2.53;1.30;;;;;;;17.80;34.88;101844.00;5049001;28;20099;-71
2023/12/07 07:13:04;;;;;;;3.00;1.38;;;;;;;17.90;34.67;101875.94;5049808;28;20033;-71
2023/12/07 07:15:33;;;;;;;2.63;1.50;;;;;;;17.92;34.93;101877.53;5049265;28;20378;-71
2023/12/07 07:17:58;;;;;;;3.33;1.38;;;;;;;17.83;34.73;101864.91;5049418;28;20039;-71
2023/12/07 07:20:25;;;;;;;2.92;1.45;;;;;;;17.88;34.99;101867.25;5049749;28;20029;-71
2023/12/07 07:22:50;;;;;;;2.50;1.10;;;;;;;17.86;34.96;101856.78;5049388;28;20036;-71
2023/12/07 07:25:16;;;;;;;2.78;1.40;;;;;;;17.87;34.84;101863.75;5047845;28;20029;-71
2023/12/07 07:27:42;;;;;;;2.38;1.17;;;;;;;17.87;34.90;101868.19;5049783;28;20031;-71
2023/12/07 07:30:08;;;;;;;2.50;1.40;;;;;;;17.83;34.50;101859.63;5048478;28;20037;-71
2023/12/07 07:32:33;;;;;;;2.60;1.38;;;;;;;17.88;34.61;101867.25;5049247;28;20037;-71
2023/12/07 07:34:59;;;;;;;2.47;1.30;;;;;;;17.90;35.09;101875.94;5046021;28;20622;-71
2023/12/07 07:37:24;;;;;;;2.72;1.25;;;;;;;17.89;34.98;101875.06;5049139;28;20029;-71
2023/12/07 07:39:49;;;;;;;2.72;1.42;;;;;;;17.94;34.91;101880.06;5049807;28;20067;-71
2023/12/07 07:42:16;;;;;;;2.80;1.45;;;;;;;17.96;34.65;101883.47;5049660;28;20033;-70
2023/12/07 07:44:41;;;;;;;2.97;1.58;;;;;;;17.99;34.68;101888.53;5048512;28;20061;-69
2023/12/07 07:47:08;;;;;;;3.00;1.50;;;;;;;17.90;34.88;101863.59;5048422;28;20397;-69
2023/12/07 07:49:33;;;;;;;2.15;1.17;;;;;;;17.89;34.63;101866.31;5049211;28;20179;-70
2023/12/07 07:51:58;;;;;;;3.28;1.40;;;;;;;18.02;34.87;101879.56;5048826;28;20620;-70
2023/12/07 07:54:23;;;;;;;2.27;1.27;;;;;;;17.97;34.82;101871.94;5050620;28;20029;-70
2023/12/07 07:56:49;;;;;;;2.38;1.45;;;;;;;18.02;34.90;101874.28;5050580;28;20750;-70
2023/12/07 07:59:15;;;;;;;3.03;1.52;;;;;;;17.91;34.61;101853.88;5051012;28;20044;-70
2023/12/07 08:01:40;;;;;;;2.97;1.40;;;;;;;18.00;34.72;101870.91;5050303;28;20036;-70
2023/12/07 08:04:05;;;;;;;3.42;1.70;;;;;;;17.94;35.08;101853.69;5049131;28;20056;-70
2023/12/07 08:06:30;;;;;;;5.13;1.60;;;;;;;17.94;34.98;101866.88;5048376;28;20059;-70
2023/12/07 08:08:56;;;;;;;3.00;1.50;;;;;;;18.03;35.26;101870.72;5049163;28;20048;-70
2023/12/07 08:11:21;;;;;;;3.00;1.50;;;;;;;18.02;35.31;101871.66;5049818;28;20132;-70
2023/12/07 08:13:46;;;;;;;2.78;1.42;;;;;;;17.96;35.36;101862.38;5050726;28;20332;-70
2023/12/07 08:16:12;;;;;;;4.50;1.60;;;;;;;18.04;35.57;101877.66;5049950;28;20074;-70
2023/12/07 08:18:37;;;;;;;3.03;1.40;;;;;;;18.03;35.79;101870.72;5050365;28;20033;-71
2023/12/07 08:21:03;;;;;;;3.33;1.50;;;;;;;18.02;35.56;101876.94;5047814;28;20029;-71
2023/12/07 08:23:28;;;;;;;3.25;1.63;;;;;;;17.95;35.79;101866.78;5047844;28;20504;-71
2023/12/07 08:25:56;;;;;;;3.05;1.40;;;;;;;17.99;36.10;101870.09;5047547;28;20123;-71
2023/12/07 08:28:22;;;;;;;3.42;1.50;;;;;;;17.99;36.00;101864.81;5047797;28;20029;-70
2023/12/07 08:30:48;;;;;;;3.72;1.60;;;;;;;18.09;36.05;101886.16;5046803;28;20025;-70
2023/12/07 08:33:14;;;;;;;3.80;1.45;;;;;;;18.01;36.23;101862.03;5047396;28;20362;-71
2023/12/07 08:35:39;;;;;;;3.10;1.42;;;;;;;18.03;36.25;101863.66;5047489;28;20071;-71
2023/12/07 08:38:04;;;;;;;2.80;1.50;;;;;;;18.13;36.25;101879.72;5047952;28;20036;-71
2023/12/07 08:40:30;;;;;;;3.13;1.45;;;;;;;18.07;36.19;101880.13;5047554;28;20270;-71
2023/12/07 08:42:55;;;;;;;3.15;1.35;;;;;;;18.09;36.46;101873.81;5047128;28;20479;-70
2023/12/07 08:45:20;;;;;;;3.00;1.40;;;;;;;18.14;36.36;101878.78;5046902;28;20052;-71
2023/12/07 08:47:46;;;;;;;3.65;1.40;;;;;;;18.18;36.53;101884.69;5047371;28;20033;-68
2023/12/07 08:50:11;;;;;;;2.53;1.27;;;;;;;18.18;36.39;101879.41;5046401;28;20040;-70
2023/12/07 08:52:36;;;;;;;3.30;1.40;;;;;;;18.16;36.40;101884.78;5047191;28;20481;-68
2023/12/07 08:55:02;;;;;;;2.92;1.40;;;;;;;18.18;36.75;101888.19;5022940;28;20037;-68
2023/12/07 08:57:27;;;;;;;3.00;1.60;;;;;;;18.18;36.79;101890.81;5046775;28;20171;-69
2023/12/07 08:59:54;;;;;;;3.43;1.33;;;;;;;18.18;36.78;101882.91;5043447;28;20481;-69
2023/12/07 09:02:20;;;;;;;2.88;1.40;;;;;;;18.20;36.54;101890.72;5049277;28;20273;-69
2023/12/07 09:04:45;;;;;;;4.57;1.60;;;;;;;18.17;36.50;101877.75;5045794;28;20021;-71
2023/12/07 09:07:15;;;;;;;3.60;1.65;;;;;;;18.18;36.06;101868.88;5045620;28;20040;-69
2023/12/07 09:09:46;;;;;;;3.78;1.63;;;;;;;18.12;36.48;101865.69;5045096;28;20037;-68
2023/12/07 09:12:12;;;;;;;3.40;1.75;;;;;;;18.20;36.40;101875.75;5045315;28;20029;-66
2023/12/07 09:14:37;;;;;;;4.85;1.67;;;;;;;18.24;36.23;101871.94;5045462;28;20037;-68
2023/12/07 09:17:02;;;;;;;3.83;2.10;;;;;;;18.21;36.32;101866.03;5045245;28;20025;-69
2023/12/07 09:19:28;;;;;;;3.53;1.70;;;;;;;18.18;36.28;101860.94;5045912;28;20025;-70
2023/12/07 09:21:53;;;;;;;4.95;1.70;;;;;;;18.28;36.17;101872.63;5046110;28;20040;-71
2023/12/07 09:24:19;;;;;;;3.25;1.42;;;;;;;18.28;36.32;101859.41;5045907;28;20495;-69
2023/12/07 09:26:45;;;;;;;5.22;1.70;;;;;;;18.24;36.24;101852.63;5045729;28;20036;-69
2023/12/07 09:29:10;;;;;;;3.72;1.83;;;;;;;18.25;36.16;101855.19;5043907;28;20386;-69
2023/12/07 09:31:35;;;;;;;3.30;1.80;;;;;;;18.35;36.43;101855.41;5044415;28;20029;-69
2023/12/07 09:34:00;;;;;;;3.72;1.70;;;;;;;18.34;36.44;101851.09;5045732;28;20082;-71
2023/12/07 09:36:27;;;;;;;4.47;1.80;;;;;;;18.26;36.59;101837.53;5045188;28;20043;-70
2023/12/07 09:38:53;;;;;;;3.72;1.73;;;;;;;18.28;36.37;101833.03;5045880;28;20496;-70
2023/12/07 09:41:20;;;;;;;3.85;1.88;;;;;;;18.34;36.48;101837.91;5045757;28;20029;-69
2023/12/07 09:43:45;;;;;;;5.70;2.10;;;;;;;18.39;36.64;101851.63;5045671;28;20047;-71
2023/12/07 09:46:11;;;;;;;3.65;1.60;;;;;;;18.39;36.44;101841.06;5045476;28;20057;-70
2023/12/07 09:48:42;;;;;;;4.05;1.83;;;;;;;18.31;36.60;101830.19;5045830;28;20091;-70
2023/12/07 09:51:08;;;;;;;3.65;1.77;;;;;;;18.39;36.41;101835.81;5045747;28;20177;-70
2023/12/07 09:53:33;;;;;;;4.35;2.00;;;;;;;18.40;36.50;101829.56;5045004;28;20367;-70
2023/12/07 09:55:58;;;;;;;4.93;2.10;;;;;;;18.35;36.66;101815.81;5044535;28;20083;-69
2023/12/07 09:58:24;;;;;;;3.27;1.80;;;;;;;18.39;36.50;101817.31;5045364;28;20051;-67
2023/12/07 10:00:49;;;;;;;4.40;2.20;;;;;;;18.34;36.38;101806.25;5045984;28;20341;-68
2023/12/07 10:03:25;;;;;;;4.32;1.90;;;;;;;18.33;36.42;101796.63;5049413;28;20261;-68
2023/12/07 10:05:55;;;;;;;3.67;1.83;;;;;;;18.33;36.44;101785.22;5049415;28;20028;-69
2023/12/07 10:08:31;;;;;;;4.28;2.10;;;;;;;18.33;36.33;101788.72;5049454;28;20036;-69
2023/12/07 10:11:11;;;;;;;4.32;1.80;;;;;;;18.43;36.28;101788.94;5043664;28;20139;-69
2023/12/07 10:13:37;;;;;;;4.00;1.95;;;;;;;18.41;36.57;101796.94;5048607;28;20033;-68
2023/12/07 10:16:09;;;;;;;3.88;1.90;;;;;;;18.34;36.29;101777.22;5048192;28;20047;-67
2023/12/07 10:18:35;;;;;;;3.92;1.80;;;;;;;18.36;36.40;101792.91;5048508;28;20028;-68
2023/12/07 10:21:01;;;;;;;4.00;2.05;;;;;;;18.30;36.33;101759.88;5048061;28;20052;-68
2023/12/07 10:23:27;;;;;;;4.10;1.70;;;;;;;18.41;36.46;101777.63;5049106;28;20497;-69
2023/12/07 10:25:52;;;;;;;5.00;1.88;;;;;;;18.27;36.53;101746.88;5048080;28;20047;-67
2023/12/07 10:28:19;;;;;;;4.35;1.90;;;;;;;18.41;36.55;101762.63;5049185;28;20393;-69
2023/12/07 10:30:44;;;;;;;4.20;1.95;;;;;;;18.40;36.59;101755.66;5047576;28;20029;-68
2023/12/07 10:33:10;;;;;;;4.40;1.90;;;;;;;18.41;36.51;101761.81;5051636;28;20036;-68
2023/12/07 10:35:40;;;;;;;3.33;1.63;;;;;;;18.28;36.65;101751.22;5047406;28;20393;-68
2023/12/07 10:38:06;;;;;;;3.28;1.60;;;;;;;18.29;36.66;101751.13;5048922;28;20029;-68
2023/12/07 10:40:31;;;;;;;3.30;1.77;;;;;;;18.27;36.63;101749.53;5049510;28;20812;-68
2023/12/07 10:42:58;;;;;;;3.90;1.40;;;;;;;18.30;36.40;101767.81;5049481;28;20067;-68
2023/12/07 10:45:26;;;;;;;3.20;1.60;;;;;;;18.28;36.70;101743.31;5046226;28;20052;-69
2023/12/07 10:47:55;;;;;;;4.15;2.10;;;;;;;18.27;36.46;101734.53;5047880;28;20024;-68
2023/12/07 10:50:23;;;;;;;4.55;2.08;;;;;;;18.20;36.51;101716.56;5048659;28;20075;-68
2023/12/07 10:52:54;;;;;;;4.38;1.95;;;;;;;18.22;36.38;101715.53;5048519;28;20055;-70
2023/12/07 10:55:28;;;;;;;3.28;1.60;;;;;;;18.19;36.59;101714.91;5047807;28;20071;-68
2023/12/07 10:57:55;;;;;;;3.95;2.10;;;;;;;18.24;36.42;101720.72;5046261;28;20072;-66
2023/12/07 11:00:27;;;;;;;4.22;2.20;;;;;;;18.26;36.59;101726.72;5048400;28;20033;-67
2023/12/07 11:02:53;;;;;;;4.32;1.92;;;;;;;18.24;36.49;101720.72;5047377;28;20064;-68
2023/12/07 11:05:18;;;;;;;3.65;1.92;;;;;;;18.17;36.40;101703.63;5047976;28;20477;-68
2023/12/07 11:08:07;;;;;;;6.60;2.00;;;;;;;18.26;36.81;101714.41;5048234;28;20037;-68
2023/12/07 11:10:46;;;;;;;3.72;1.85;;;;;;;18.26;36.36;101714.41;5048282;28;20075;-69
2023/12/07 11:13:18;;;;;;;4.18;1.80;;;;;;;18.26;36.72;101709.13;5047903;28;20111;-68
2023/12/07 11:15:44;;;;;;;3.50;1.98;;;;;;;18.18;36.72;101677.09;5047966;28;20091;-68
2023/12/07 11:18:12;;;;;;;4.60;2.15;;;;;;;18.17;36.62;101675.44;5048230;28;20473;-68